Weather at Faizabad Airport

Public forecast

Using degrees Celsius for public forecast. Weather courtesy of forecast.io.

Closest aviation weather report (METAR) to Faizabad Airport

Closest report is Chaudhary Charan Singh International Airport, 67.8 nm (125.6 km) W. Retrieved 2020/09/21 00:30 UTC (0 seconds ago):

VILK 210030Z 00000KT 3500 BR NSC 29/27 Q1000 BECMG 3000 BR

Closest aviation forecast (TAF) to Faizabad Airport

Closest forecast is Chaudhary Charan Singh International Airport, 67.8 nm (125.6 km) W. Retrieved 2020-09-21 00:00 UTC (15 minutes ago):

TAF VILK 202300Z 2100/2206 00000KT 2000 BR SCT020 BKN100 BECMG 2102/2104 1500 BR TEMPO 2106/2109 FEW030CB BECMG 2115/2118 3000 BR TEMPO 2123/2203 2000 -TSRA -RA FEW030CB OVC090